Etusivu
METAR-TAF:

METAR-TAF

Lentoasemat :

Notodden, Norja

Leveyspiiri: 59-34N, Pituuspiiri: 009-13E, korkeus merenpinnasta: 19 m

Tämänhetkinen sää

Tämä raportti tehtiin 56 minuuttia sitten, kello 14.50 UTC
Tuuli 9 kn lännestä
Lämpötila 13°C
Kosteus 41%
Ilmanpaine 1019 hPa
Näkyvyys 10 km tai enemmän
Muutamia pilviä 6600 ft:n korkeudessa

METAR: ENNO 211450Z 28009KT 9999 FEW066 13/M00 Q1019

Aika: 16:46 (15:46 UTC)

Sääennuste

Tämä raportti tehtiin 4 tuntia ja 46 minuuttia sitten, kello 11.00 UTC
Ennuste voimassa 21. päivästä klo 12 UTC - 21. päivään klo 18 UTC
Tuuli 8 kn lännestä/luoteesta
Näkyvyys 10 km tai enemmän
Muutamia pilviä 4000 ft:n korkeudessa
Ajoittain
21. päivästä klo 12 UTC - 21. päivään klo 16 UTC
Tuuli 15 kn lännestä/luoteesta puuskistuen 25 kn:hen

TAF: ENNO 211100Z 2112/2118 30008KT 9999 FEW040 TEMPO 2112/2116 29015G25KT

Säähavainnot ja -ennusteet yli 4000 lentoasemalta (METAR- ja TAF-raportit).

Käytössä olevat sääasemat on merkitty karttaan keltaisilla ja punaisilla pisteillä.

Aseta hiiri pisteen päälle nähdäksesi sääaseman nimen.

Klikkaa sitten nähdäksesi säähavainnot ja -ennusteet.

Kartan vaihtaminen: klikkaa mustalla rastilla varustettuja vihreitä pisteitä, niin voit zoomata sisään; viivalla varustettua vihreää pistettä, niin voit zoomata ulos tai vihreitä nuolia, niin pääset viereisille kartoille.


METAR-TAF: